ボードー の空港の天気 - METARとTAF

Bodo Vi ( ENBO / BOO ) - ノルウェー ヌールラン県ボードー
飛行場実況気象(Metar)
観測時間11/27 09:50 CET (11/27 08:50 UTC)
風向・風速東 13m/s
視程10km以上
天気現象
全天の8割程度の雲 雲底高度 2990m
全天を覆う雲 雲底高度 4570m
気温4℃
湿度60%
気圧1017hPa
METARENBO 270850Z 09025KT 9999 BKN098/// OVC150/// 04/M03 Q1017 NOSIG
過去の天気等 Google飛行場航空写真 Wunderground天気予報

過去48時間のMETAR

飛行場予報(TAF)
発表時間: -
TAF ENBO 2706/2806 10020KT CAVOK